Dothan Regional Airport Dothan US
ICAO: KDHN
IATA: DHN
Category: Medium
Scheduled Services: Yes

Elevation: 401 ft
TransAlt. 18000 ft.

Airport Communications:
CAIRNS APP/DEP:125.4
ATIS:135.72
CTAF:118.4
GND:121.7
VFR ADVSY SVC:118.4
ANNISTON RDO:122.2
TWR:118.4
UNICOM:122.95

KDHN Zoom In..

Runways:

(A) RW 14 length 8499 ft width 150 ft
ILS 110.75 / hdg 138

(B) RW 18 length 5498 ft width 100 ft
---- / hdg 183

(C) RW 32 length 8499 ft width 150 ft
ILS 108.30 / hdg 318

(D) RW 36 length 5498 ft width 100 ft
---- / hdg 3

Location; KDHN
Day. 22 / Time. 23.53 Zulu
* Altimeter: 29.98
* Temperature: 20° c. 68°f.
* Wind from: 190° Speed 13 kn.
Dewpoint: 18° c.
Visibility: 10 Statute Miles.
Clouds: Broken 1600 ft.
Clouds: Broken 2100 ft.
Clouds: Broken 11000 ft.

KDHN 222353Z 19013KT 10SM BKN016 BKN021 BKN110 20/18 A2998 RMK AO2 SLPNO T02000178 10211 20194 53006


Wind From 190°
Speed 13 kn.

YouTube Music Video
 
jpsmedia.com for Web Design  worldairports.se 2018   terms of use